Time;durP1;ratioP1;P1;durP2;ratioP2;P2;SDS_P1;SDS_P2;PMS_P1;PMS_P2;Temp;Humidity;BMP_temperature;BMP_pressure;BME280_temperature;BME280_humidity;BME280_pressure;Samples;Min_cycle;Max_cycle;Signal;HPM_P1;HPM_P2
2022/03/21 00:00:35;;;;;;;35.45;13.65;;;;;;;0.66;36.03;95588.06;5043638;28;20032;-74
2022/03/21 00:03:01;;;;;;;31.05;12.35;;;;;;;0.64;35.80;95580.41;5043437;28;20040;-74
2022/03/21 00:05:29;;;;;;;32.53;14.10;;;;;;;0.62;36.09;95584.25;5043829;28;20304;-74
2022/03/21 00:07:55;;;;;;;38.60;12.98;;;;;;;0.59;36.83;95575.78;5043827;28;20025;-74
2022/03/21 00:10:21;;;;;;;31.13;12.27;;;;;;;0.56;37.53;95583.25;5043784;28;20316;-75
2022/03/21 00:12:46;;;;;;;34.17;12.52;;;;;;;0.51;37.32;95576.03;5043562;28;20264;-73
2022/03/21 00:15:12;;;;;;;30.40;12.55;;;;;;;0.48;37.96;95584.28;5043281;28;20048;-73
2022/03/21 00:17:40;;;;;;;27.65;11.80;;;;;;;0.47;37.41;95571.38;5043232;28;20032;-73
2022/03/21 00:20:11;;;;;;;28.20;12.95;;;;;;;0.45;37.09;95570.78;5043532;28;20153;-73
2022/03/21 00:22:37;;;;;;;28.92;11.20;;;;;;;0.44;37.11;95574.41;5043117;28;20063;-73
2022/03/21 00:25:05;;;;;;;22.10;10.35;;;;;;;0.38;36.76;95578.66;5043372;28;20033;-73
2022/03/21 00:27:35;;;;;;;24.02;10.00;;;;;;;0.35;36.70;95581.72;5043001;28;20025;-73
2022/03/21 00:30:01;;;;;;;21.63;9.90;;;;;;;0.30;36.04;95576.28;5042899;28;20029;-73
2022/03/21 00:32:27;;;;;;;19.77;8.18;;;;;;;0.34;36.12;95577.47;5043269;28;20029;-74
2022/03/21 00:34:52;;;;;;;17.70;8.85;;;;;;;0.33;35.71;95571.44;5042922;28;20048;-74
2022/03/21 00:37:18;;;;;;;20.95;9.63;;;;;;;0.37;35.96;95563.97;5043187;28;20353;-73
2022/03/21 00:39:44;;;;;;;19.42;9.10;;;;;;;0.37;36.28;95562.13;5042938;28;20021;-73
2022/03/21 00:42:10;;;;;;;29.80;10.15;;;;;;;0.33;35.88;95562.75;5042936;28;20315;-73
2022/03/21 00:44:37;;;;;;;24.00;10.38;;;;;;;0.32;35.62;95558.50;5042951;28;20017;-73
2022/03/21 00:47:03;;;;;;;22.33;10.25;;;;;;;0.33;35.63;95557.50;5042912;28;20231;-76
2022/03/21 00:49:29;;;;;;;29.48;10.13;;;;;;;0.33;35.80;95558.31;5042895;28;20216;-75
2022/03/21 00:51:54;;;;;;;30.13;9.35;;;;;;;0.31;35.86;95556.91;5042505;28;20021;-74
2022/03/21 00:54:20;;;;;;;24.17;9.13;;;;;;;0.26;36.04;95549.66;5042766;28;20089;-75
2022/03/21 00:56:45;;;;;;;22.25;9.70;;;;;;;0.26;36.03;95547.03;5042946;28;20029;-75
2022/03/21 00:59:10;;;;;;;18.85;9.70;;;;;;;0.26;36.12;95557.50;5042614;28;20070;-74
2022/03/21 01:01:36;;;;;;;16.42;8.38;;;;;;;0.24;36.11;95543.81;5042666;28;20029;-74
2022/03/21 01:04:01;;;;;;;26.38;8.57;;;;;;;0.26;35.73;95554.88;5042714;28;20029;-74
2022/03/21 01:06:27;;;;;;;16.58;8.23;;;;;;;0.29;36.04;95541.38;5042544;28;20135;-74
2022/03/21 01:08:52;;;;;;;15.48;8.40;;;;;;;0.27;35.78;95546.03;5042886;28;20031;-75
2022/03/21 01:11:18;;;;;;;18.80;8.23;;;;;;;0.25;36.03;95542.00;5042744;28;20021;-74
2022/03/21 01:13:43;;;;;;;17.63;7.88;;;;;;;0.26;36.18;95533.91;5042509;28;20151;-75
2022/03/21 01:16:09;;;;;;;17.25;8.48;;;;;;;0.23;36.25;95533.53;5024774;28;20060;-74
2022/03/21 01:18:35;;;;;;;16.58;7.60;;;;;;;0.31;35.47;95528.88;5042598;28;20045;-75
2022/03/21 01:21:00;;;;;;;21.02;7.65;;;;;;;0.29;35.54;95524.84;5042625;28;20219;-74
2022/03/21 01:23:26;;;;;;;16.25;7.43;;;;;;;0.35;35.43;95513.53;5042629;28;20022;-75
2022/03/21 01:25:54;;;;;;;11.95;6.97;;;;;;;0.35;35.32;95531.88;5042813;28;20096;-75
2022/03/21 01:28:19;;;;;;;18.00;7.85;;;;;;;0.40;35.13;95513.69;5042627;28;20032;-75
2022/03/21 01:30:45;;;;;;;16.15;7.82;;;;;;;0.48;35.34;95512.66;5042448;28;20021;-75
2022/03/21 01:33:10;;;;;;;22.65;8.88;;;;;;;0.54;35.48;95515.25;5042255;28;20046;-74
2022/03/21 01:35:36;;;;;;;18.67;8.02;;;;;;;0.66;35.11;95525.09;5042475;28;20029;-75
2022/03/21 01:38:01;;;;;;;18.55;7.65;;;;;;;0.69;34.57;95508.91;5042556;28;20324;-75
2022/03/21 01:40:27;;;;;;;15.02;8.15;;;;;;;0.72;34.74;95501.41;5042416;28;20044;-75
2022/03/21 01:42:52;;;;;;;18.95;7.97;;;;;;;0.79;34.49;95506.63;5042435;28;20063;-75
2022/03/21 01:45:19;;;;;;;16.92;7.07;;;;;;;0.83;34.08;95497.31;5042101;28;20021;-75
2022/03/21 01:47:46;;;;;;;16.83;7.70;;;;;;;0.85;33.71;95502.34;5042336;28;20236;-75
2022/03/21 01:50:13;;;;;;;16.35;7.72;;;;;;;0.93;34.00;95500.28;5042399;28;20025;-75
2022/03/21 01:52:41;;;;;;;21.02;8.82;;;;;;;0.95;34.21;95493.00;5042206;28;20025;-75
2022/03/21 01:57:52;;;;;;;14.57;7.72;;;;;;;1.02;33.39;95502.66;5042413;28;20227;-75
2022/03/21 02:00:18;;;;;;;17.30;7.97;;;;;;;1.06;33.71;95501.19;5042246;28;20021;-75
2022/03/21 02:02:44;;;;;;;14.70;7.22;;;;;;;1.10;33.51;95502.38;5042252;28;20272;-75
2022/03/21 02:05:09;;;;;;;12.95;6.47;;;;;;;1.14;33.61;95498.31;5044796;28;20215;-75
2022/03/21 02:07:35;;;;;;;15.43;7.03;;;;;;;1.15;33.79;95494.69;5045805;28;20021;-74
2022/03/21 02:10:03;;;;;;;14.07;7.60;;;;;;;1.17;33.55;95495.28;5045659;28;20025;-74
2022/03/21 02:12:29;;;;;;;16.00;7.20;;;;;;;1.18;33.38;95496.88;5046059;28;20028;-74
2022/03/21 02:14:55;;;;;;;13.35;7.35;;;;;;;1.21;33.50;95496.47;5045757;28;20021;-75
2022/03/21 02:17:23;;;;;;;18.30;7.43;;;;;;;1.19;33.43;95487.97;5028269;28;20361;-75
2022/03/21 02:19:50;;;;;;;21.25;8.18;;;;;;;1.19;33.79;95504.53;5045530;28;20030;-75
2022/03/21 02:22:24;;;;;;;17.02;8.30;;;;;;;1.19;34.05;95501.91;5045631;28;20041;-75
2022/03/21 02:25:22;;;;;;;22.02;10.13;;;;;;;1.15;35.19;95503.34;5045484;28;20096;-75
2022/03/21 02:27:50;;;;;;;20.80;10.10;;;;;;;1.05;35.87;95504.84;5019958;28;20032;-76
2022/03/21 02:30:15;;;;;;;16.70;9.48;;;;;;;0.99;36.33;95502.06;5045594;28;20328;-76
2022/03/21 02:32:42;;;;;;;22.27;9.50;;;;;;;0.93;36.71;95497.66;5045304;28;20028;-75
2022/03/21 02:35:09;;;;;;;19.48;8.88;;;;;;;0.86;36.74;95502.16;5045271;28;20315;-74
2022/03/21 02:37:36;;;;;;;21.25;9.18;;;;;;;0.82;37.13;95508.84;5045069;28;20207;-75
2022/03/21 02:40:01;;;;;;;17.30;8.43;;;;;;;0.74;36.79;95503.84;5045292;28;20025;-75
2022/03/21 02:42:27;;;;;;;22.25;9.23;;;;;;;0.71;36.50;95515.56;5045216;28;20044;-75
2022/03/21 02:44:52;;;;;;;16.48;8.50;;;;;;;0.68;36.80;95517.81;5045221;28;20021;-75
2022/03/21 02:47:18;;;;;;;19.50;9.20;;;;;;;0.66;36.96;95528.50;5045040;28;20017;-75
2022/03/21 02:49:44;;;;;;;17.48;8.40;;;;;;;0.60;36.96;95519.66;5045050;28;20024;-75
2022/03/21 02:52:12;;;;;;;22.55;8.35;;;;;;;0.55;36.87;95522.09;5045083;28;20065;-74
2022/03/21 02:54:37;;;;;;;21.58;8.20;;;;;;;0.52;37.04;95522.50;5045031;28;20079;-74
2022/03/21 02:57:03;;;;;;;18.58;7.55;;;;;;;0.49;36.69;95532.63;5045042;28;20025;-74
2022/03/21 02:59:29;;;;;;;26.67;8.43;;;;;;;0.50;36.44;95529.00;5044899;28;20017;-74
2022/03/21 03:01:54;;;;;;;17.85;7.93;;;;;;;0.47;36.38;95530.22;5045088;28;20025;-74
2022/03/21 03:04:24;;;;;;;19.02;7.90;;;;;;;0.48;36.04;95528.41;5044621;28;20089;-74
2022/03/21 03:06:50;;;;;;;17.88;7.35;;;;;;;0.49;34.98;95532.63;5044830;28;20009;-74
2022/03/21 03:09:15;;;;;;;18.58;7.18;;;;;;;0.49;34.55;95532.63;5044698;28;20018;-74
2022/03/21 03:11:41;;;;;;;17.70;8.45;;;;;;;0.53;34.28;95524.13;5044674;28;20319;-74
2022/03/21 03:14:06;;;;;;;17.90;9.20;;;;;;;0.59;33.98;95528.56;5044579;28;20018;-74
2022/03/21 03:16:32;;;;;;;27.42;8.77;;;;;;;0.63;34.08;95528.91;5044292;28;20021;-75
2022/03/21 03:18:58;;;;;;;23.05;7.53;;;;;;;0.65;33.94;95537.38;5044595;28;20279;-74
2022/03/21 03:21:26;;;;;;;19.85;8.40;;;;;;;0.66;33.55;95527.72;5044570;28;20033;-74
2022/03/21 03:23:52;;;;;;;15.35;8.20;;;;;;;0.69;33.66;95532.53;5044320;28;20022;-74
2022/03/21 03:26:18;;;;;;;15.20;8.55;;;;;;;0.71;33.52;95520.81;5044453;28;20025;-74
2022/03/21 03:28:47;;;;;;;23.23;9.18;;;;;;;0.72;34.06;95532.91;5044354;28;20029;-74
2022/03/21 03:31:16;;;;;;;20.08;8.38;;;;;;;0.74;34.12;95530.09;5044378;28;20032;-73
2022/03/21 03:33:45;;;;;;;21.08;8.52;;;;;;;0.70;33.67;95524.44;5044050;28;20090;-74
2022/03/21 03:36:11;;;;;;;22.05;9.02;;;;;;;0.72;33.48;95527.66;5044098;28;20021;-73
2022/03/21 03:38:36;;;;;;;22.30;10.10;;;;;;;0.74;33.99;95522.22;5044150;28;20032;-73
2022/03/21 03:41:02;;;;;;;19.70;9.50;;;;;;;0.73;34.05;95517.97;5043929;28;20092;-73
2022/03/21 03:43:27;;;;;;;36.90;9.98;;;;;;;0.71;34.35;95514.75;5044153;28;20306;-73
2022/03/21 03:45:54;;;;;;;20.85;9.82;;;;;;;0.67;34.36;95519.63;5043861;28;20017;-73
2022/03/21 03:48:20;;;;;;;21.98;9.60;;;;;;;0.64;34.56;95525.28;5043969;28;20017;-73
2022/03/21 03:50:46;;;;;;;24.48;10.40;;;;;;;0.63;34.74;95528.13;5043995;28;20032;-73
2022/03/21 03:53:12;;;;;;;16.55;9.07;;;;;;;0.52;33.96;95527.75;5043698;28;20313;-73
2022/03/21 03:55:37;;;;;;;21.65;9.77;;;;;;;0.51;34.31;95520.91;5043885;28;20033;-74
2022/03/21 03:58:03;;;;;;;21.80;9.15;;;;;;;0.48;34.88;95525.78;5043949;28;20031;-73
2022/03/21 04:00:28;;;;;;;20.35;9.73;;;;;;;0.42;34.88;95526.59;5043739;28;20021;-73
2022/03/21 04:05:38;;;;;;;19.45;8.48;;;;;;;0.40;34.73;95521.56;5043734;28;20032;-73
2022/03/21 04:08:04;;;;;;;21.20;8.38;;;;;;;0.39;34.12;95530.47;5043651;28;20024;-73
2022/03/21 04:10:29;;;;;;;23.70;9.38;;;;;;;0.37;34.05;95517.53;5043603;28;20025;-74
2022/03/21 04:12:55;;;;;;;23.13;9.60;;;;;;;0.42;33.94;95518.72;5043676;28;20031;-76
2022/03/21 04:15:22;;;;;;;19.95;9.88;;;;;;;0.40;34.34;95498.75;5043214;28;20042;-75
2022/03/21 04:17:47;;;;;;;19.88;9.05;;;;;;;0.37;34.00;95504.44;5043468;28;20087;-75
2022/03/21 04:20:13;;;;;;;24.30;10.25;;;;;;;0.39;33.77;95509.47;5043389;28;20029;-75
2022/03/21 04:22:39;;;;;;;18.02;8.10;;;;;;;0.36;33.73;95510.66;5043315;28;20029;-75
2022/03/21 04:25:07;;;;;;;20.30;8.48;;;;;;;0.36;35.25;95513.28;5043310;28;20076;-75
2022/03/21 04:27:33;;;;;;;19.05;9.32;;;;;;;0.33;34.03;95511.09;5042677;28;20029;-75
2022/03/21 04:30:00;;;;;;;21.98;9.40;;;;;;;0.33;34.41;95507.69;5043398;28;20055;-75
2022/03/21 04:32:26;;;;;;;20.80;9.32;;;;;;;0.37;34.58;95517.53;5043400;28;20029;-75
2022/03/21 04:34:52;;;;;;;18.08;8.52;;;;;;;0.37;33.96;95516.75;5042918;28;20242;-75
2022/03/21 04:37:18;;;;;;;17.38;8.88;;;;;;;0.35;34.33;95518.78;5043230;28;20052;-75
2022/03/21 04:39:43;;;;;;;17.80;8.15;;;;;;;0.33;34.43;95510.31;5043020;28;20025;-75
2022/03/21 04:42:09;;;;;;;20.42;9.20;;;;;;;0.32;34.78;95512.09;5042852;28;20021;-75
2022/03/21 04:44:34;;;;;;;17.67;8.63;;;;;;;0.30;34.51;95508.88;5043039;28;20013;-75
2022/03/21 04:47:00;;;;;;;17.38;8.43;;;;;;;0.32;34.62;95511.31;5043037;28;20036;-75
2022/03/21 04:49:25;;;;;;;18.23;7.93;;;;;;;0.32;34.89;95513.94;5043173;28;20036;-75
2022/03/21 04:51:51;;;;;;;18.73;8.52;;;;;;;0.26;34.66;95510.31;5025345;28;20367;-74
2022/03/21 04:54:16;;;;;;;23.30;9.82;;;;;;;0.21;35.44;95518.00;5042540;28;20056;-74
2022/03/21 04:56:42;;;;;;;31.38;13.80;;;;;;;0.25;35.22;95516.59;5042868;28;20024;-74
2022/03/21 04:59:08;;;;;;;28.88;12.45;;;;;;;0.31;35.03;95520.19;5042942;28;20132;-74
2022/03/21 05:01:33;;;;;;;21.80;10.65;;;;;;;0.31;34.62;95507.88;5042683;28;20018;-73
2022/03/21 05:04:00;;;;;;;21.67;10.10;;;;;;;0.35;34.69;95516.16;5042816;28;20367;-74
2022/03/21 05:06:25;;;;;;;18.75;9.52;;;;;;;0.40;34.65;95518.94;5042424;28;20026;-74
2022/03/21 05:08:51;;;;;;;23.60;9.18;;;;;;;0.45;34.33;95515.69;5042513;28;20103;-74
2022/03/21 05:11:17;;;;;;;22.17;9.15;;;;;;;0.53;34.14;95516.25;5042655;28;20018;-74
2022/03/21 05:13:42;;;;;;;22.77;8.95;;;;;;;0.58;33.90;95519.06;5042486;28;20021;-74
2022/03/21 05:16:08;;;;;;;20.08;8.57;;;;;;;0.65;34.03;95521.63;5042366;28;20062;-75
2022/03/21 05:18:34;;;;;;;14.50;7.32;;;;;;;0.70;33.46;95526.28;5042330;28;20207;-76
2022/03/21 05:21:05;;;;;;;18.00;6.90;;;;;;;0.83;33.30;95526.19;5042532;28;20093;-76
2022/03/21 05:31:43;;;;;;;13.38;6.68;;;;;;;1.10;33.47;95531.28;5042532;28;20090;-76
2022/03/21 05:36:53;;;;;;;25.27;10.65;;;;;;;1.23;33.41;95533.81;5042258;28;20072;-74
2022/03/21 05:39:18;;;;;;;36.63;12.70;;;;;;;1.28;33.77;95531.34;5043740;28;20247;-76
2022/03/21 05:41:44;;;;;;;32.03;13.02;;;;;;;1.34;34.01;95533.16;5046310;28;20031;-76
2022/03/21 05:44:11;;;;;;;30.40;11.60;;;;;;;1.41;33.93;95530.47;5046031;28;20021;-75
2022/03/21 05:46:37;;;;;;;40.67;13.68;;;;;;;1.49;33.88;95535.44;5045955;28;20093;-76
2022/03/21 05:49:03;;;;;;;32.78;12.55;;;;;;;1.51;33.63;95537.88;5046217;28;20254;-74
2022/03/21 05:51:32;;;;;;;31.48;12.38;;;;;;;1.55;33.40;95531.16;5046153;28;20101;-75
2022/03/21 05:53:59;;;;;;;26.35;11.90;;;;;;;1.58;33.25;95531.50;5046174;28;20024;-75
2022/03/21 05:56:27;;;;;;;24.08;10.02;;;;;;;1.68;33.51;95531.03;5045863;28;20021;-75
2022/03/21 05:58:54;;;;;;;18.17;8.63;;;;;;;1.74;33.17;95543.31;5045932;28;20021;-75
2022/03/21 06:01:23;;;;;;;33.72;14.05;;;;;;;1.79;32.82;95527.72;5046011;28;20338;-74
2022/03/21 06:03:53;;;;;;;27.48;10.45;;;;;;;1.84;32.75;95528.88;5045823;28;20025;-76
2022/03/21 06:06:20;;;;;;;20.67;9.52;;;;;;;1.93;33.11;95532.81;5045694;28;20027;-75
2022/03/21 06:08:45;;;;;;;21.08;9.32;;;;;;;2.03;33.21;95532.31;5045787;28;20017;-74
2022/03/21 06:11:12;;;;;;;28.65;9.85;;;;;;;2.07;32.75;95534.28;5045612;28;20028;-75
2022/03/21 06:13:41;;;;;;;27.30;11.98;;;;;;;2.15;33.08;95541.91;5045741;28;20017;-74
2022/03/21 06:16:07;;;;;;;20.75;8.43;;;;;;;2.22;32.48;95539.22;5045549;28;20033;-75
2022/03/21 06:18:33;;;;;;;23.17;9.45;;;;;;;2.26;32.37;95542.19;5045755;28;20017;-74
2022/03/21 06:21:01;;;;;;;25.05;9.48;;;;;;;2.44;36.66;95550.09;5045866;28;20036;-73
2022/03/21 06:23:27;;;;;;;16.60;8.05;;;;;;;2.60;33.97;95540.78;5045694;28;20220;-76
2022/03/21 06:25:53;;;;;;;13.73;7.07;;;;;;;2.70;32.98;95545.53;5045346;28;20260;-75
2022/03/21 06:28:23;;;;;;;16.63;7.22;;;;;;;2.79;36.03;95538.94;5045578;28;20018;-81
2022/03/21 06:30:53;;;;;;;19.27;8.15;;;;;;;2.90;33.50;95540.81;5045811;28;20029;-81
2022/03/21 06:33:21;;;;;;;16.23;6.75;;;;;;;2.96;32.35;95526.75;5046612;28;20205;-73
2022/03/21 06:35:49;;;;;;;17.08;7.43;;;;;;;3.00;31.94;95538.44;5045264;28;20025;-73
2022/03/21 06:38:14;;;;;;;15.35;6.57;;;;;;;3.04;31.65;95530.09;5027427;28;20064;-73
2022/03/21 06:40:42;;;;;;;15.27;6.63;;;;;;;3.10;31.46;95537.91;5045292;28;20257;-73
2022/03/21 06:43:08;;;;;;;14.60;6.88;;;;;;;3.15;31.12;95532.75;5045201;28;20220;-73
2022/03/21 06:45:33;;;;;;;14.65;7.13;;;;;;;3.19;30.83;95535.75;5045094;28;20080;-73
2022/03/21 06:47:59;;;;;;;15.57;8.00;;;;;;;3.20;30.92;95542.63;5045331;28;20025;-72
2022/03/21 06:50:25;;;;;;;16.13;6.72;;;;;;;3.19;30.82;95533.13;5044327;28;20296;-72
2022/03/21 06:52:51;;;;;;;14.40;8.65;;;;;;;3.23;31.33;95536.91;5044892;28;20342;-73
2022/03/21 06:55:19;;;;;;;16.20;7.47;;;;;;;3.26;31.15;95525.94;5044958;28;20068;-72
2022/03/21 06:57:45;;;;;;;17.50;8.05;;;;;;;3.26;30.99;95536.47;5044981;28;20044;-73
2022/03/21 07:00:13;;;;;;;17.13;8.45;;;;;;;3.31;31.04;95536.59;5044878;28;20029;-73
2022/03/21 07:02:40;;;;;;;19.42;7.78;;;;;;;3.34;30.69;95533.50;5044457;28;20025;-79
2022/03/21 07:05:07;;;;;;;28.77;7.47;;;;;;;3.40;31.05;95543.16;5044707;28;20089;-74
2022/03/21 07:07:33;;;;;;;15.95;7.70;;;;;;;3.44;31.16;95532.13;5026854;28;20220;-75
2022/03/21 07:09:59;;;;;;;21.63;7.47;;;;;;;3.47;30.71;95542.25;5044549;28;20029;-75
2022/03/21 07:12:24;;;;;;;16.17;7.30;;;;;;;3.45;30.62;95533.75;5026915;28;20079;-75
2022/03/21 07:14:50;;;;;;;17.20;7.50;;;;;;;3.51;30.72;95535.47;5044307;28;20021;-75
2022/03/21 07:17:19;;;;;;;21.48;8.35;;;;;;;3.55;31.00;95536.63;5044694;28;20116;-75
2022/03/21 07:19:45;;;;;;;17.42;7.82;;;;;;;3.61;30.92;95522.53;5044489;28;20033;-75
2022/03/21 07:22:11;;;;;;;22.38;8.20;;;;;;;3.69;30.57;95514.28;5044326;28;20036;-74
2022/03/21 07:24:37;;;;;;;17.45;7.93;;;;;;;3.78;30.72;95528.72;5044157;28;20029;-74
2022/03/21 07:27:33;;;;;;;22.08;8.35;;;;;;;3.80;30.31;95524.03;5044187;28;20030;-73
2022/03/21 07:29:59;;;;;;;18.45;8.18;;;;;;;3.84;30.54;95531.50;5043532;28;20017;-75
2022/03/21 07:32:25;;;;;;;16.05;9.50;;;;;;;3.84;30.60;95519.09;5044397;28;20017;-72
2022/03/21 07:34:50;;;;;;;17.42;7.15;;;;;;;3.88;30.48;95520.25;5043731;28;20041;-75
2022/03/21 07:37:15;;;;;;;19.52;8.68;;;;;;;3.87;30.68;95518.66;5044039;28;20029;-74
2022/03/21 07:39:44;;;;;;;26.23;7.90;;;;;;;3.92;30.35;95512.69;5044175;28;20044;-75
2022/03/21 07:42:14;;;;;;;15.65;7.57;;;;;;;3.98;30.18;95509.91;5044071;28;20332;-75
2022/03/21 07:47:23;;;;;;;16.88;8.75;;;;;;;4.19;30.08;95511.16;5044047;28;20075;-75
2022/03/21 07:49:51;;;;;;;17.02;7.90;;;;;;;4.27;29.51;95496.78;5043811;28;20037;-74
2022/03/21 07:52:18;;;;;;;24.92;8.55;;;;;;;4.35;29.47;95496.44;5043978;28;20056;-74
2022/03/21 07:54:45;;;;;;;20.08;8.00;;;;;;;4.41;29.57;95495.50;5043782;28;20021;-74
2022/03/21 07:57:10;;;;;;;14.85;6.85;;;;;;;4.29;29.17;95501.84;5043767;28;20028;-78
2022/03/21 07:59:36;;;;;;;18.27;8.43;;;;;;;4.38;29.41;95498.63;5043830;28;20021;-77
2022/03/21 08:02:03;;;;;;;18.77;9.10;;;;;;;4.44;29.33;95496.88;5042903;28;20051;-77
2022/03/21 08:04:29;;;;;;;12.88;7.15;;;;;;;4.49;29.06;95491.69;5043766;28;20036;-76
2022/03/21 08:06:57;;;;;;;23.05;8.98;;;;;;;4.42;29.51;95485.75;5043757;28;20022;-77
2022/03/21 08:09:24;;;;;;;15.50;7.57;;;;;;;4.59;29.53;95476.03;5043658;28;20251;-77
2022/03/21 08:11:50;;;;;;;16.88;7.70;;;;;;;4.77;29.36;95479.53;5043458;28;20029;-77
2022/03/21 08:14:15;;;;;;;16.48;7.95;;;;;;;4.96;29.13;95483.56;5043507;28;20092;-75
2022/03/21 08:16:42;;;;;;;16.77;8.32;;;;;;;5.11;28.44;95480.41;5043184;28;20230;-76
2022/03/21 08:19:07;;;;;;;21.20;9.43;;;;;;;5.26;28.58;95485.16;5043476;28;20049;-75
2022/03/21 08:21:33;;;;;;;17.15;8.13;;;;;;;5.37;28.72;95486.09;5043233;28;20271;-75
2022/03/21 08:23:58;;;;;;;26.63;8.45;;;;;;;5.48;28.91;95481.81;5043356;28;20096;-76
2022/03/21 08:26:24;;;;;;;17.88;9.10;;;;;;;5.58;28.49;95487.25;5043141;28;20026;-76
2022/03/21 08:28:49;;;;;;;22.63;8.77;;;;;;;5.55;27.65;95488.50;5042956;28;20052;-74
2022/03/21 08:31:15;;;;;;;23.13;8.35;;;;;;;5.45;28.36;95490.19;5042942;28;20021;-75
2022/03/21 08:33:41;;;;;;;22.65;9.20;;;;;;;5.53;28.15;95479.22;5044152;28;20228;-75
2022/03/21 08:36:07;;;;;;;26.50;9.65;;;;;;;5.58;28.31;95481.97;5043227;28;20033;-76
2022/03/21 08:38:33;;;;;;;18.52;8.68;;;;;;;5.62;28.37;95488.38;5043529;28;20028;-76
2022/03/21 08:40:58;;;;;;;23.13;9.02;;;;;;;5.60;28.07;95475.38;5043432;28;20033;-75
2022/03/21 08:43:24;;;;;;;18.00;8.90;;;;;;;5.61;28.02;95476.16;5043359;28;20029;-75
2022/03/21 08:45:50;;;;;;;21.10;9.57;;;;;;;5.70;28.52;95469.44;5043243;28;20101;-75
2022/03/21 08:48:16;;;;;;;23.42;9.80;;;;;;;5.87;28.51;95471.25;5043073;28;20029;-74
2022/03/21 08:50:42;;;;;;;29.95;9.95;;;;;;;6.00;28.49;95476.22;5042907;28;20144;-74
2022/03/21 08:53:08;;;;;;;19.00;9.43;;;;;;;5.86;27.63;95474.94;5042879;28;20053;-73
2022/03/21 08:55:34;;;;;;;21.23;9.60;;;;;;;5.78;28.38;95461.09;5043577;28;20093;-73
2022/03/21 08:58:01;;;;;;;30.67;9.25;;;;;;;5.80;28.92;95474.06;5042902;28;20049;-74
2022/03/21 09:00:27;;;;;;;22.95;10.77;;;;;;;5.89;27.96;95474.47;5042796;28;20104;-74
2022/03/21 09:02:54;;;;;;;21.80;9.23;;;;;;;5.78;28.21;95461.09;5025078;28;20030;-75
2022/03/21 09:05:21;;;;;;;15.90;8.45;;;;;;;5.78;27.98;95466.38;5042652;28;20274;-75
2022/03/21 09:07:46;;;;;;;25.98;8.57;;;;;;;5.73;27.97;95470.78;5042879;28;20255;-75
2022/03/21 09:10:14;;;;;;;19.30;9.02;;;;;;;5.49;28.56;95460.38;5042638;28;20071;-75
2022/03/21 09:12:42;;;;;;;13.30;6.68;;;;;;;5.38;28.67;95458.63;5042393;28;20088;-75
2022/03/21 09:15:07;;;;;;;24.38;9.10;;;;;;;5.28;28.70;95461.91;5042283;28;20175;-77
2022/03/21 09:17:37;;;;;;;21.10;8.27;;;;;;;5.45;28.71;95467.19;5042780;28;20291;-74
2022/03/21 09:20:03;;;;;;;26.52;10.48;;;;;;;5.56;29.56;95470.81;5042572;28;20025;-76
2022/03/21 09:22:29;;;;;;;20.92;9.38;;;;;;;5.69;29.13;95478.41;5025042;28;20035;-75
2022/03/21 09:24:54;;;;;;;17.65;8.52;;;;;;;5.60;28.46;95474.59;5042434;28;20092;-76
2022/03/21 09:27:20;;;;;;;14.20;8.77;;;;;;;5.31;28.39;95465.91;5042402;28;20354;-75
2022/03/21 09:29:46;;;;;;;12.63;7.15;;;;;;;5.19;28.69;95473.91;5042470;28;20097;-76
2022/03/21 09:32:11;;;;;;;16.55;8.23;;;;;;;5.04;28.65;95469.19;5042570;28;20028;-76
2022/03/21 09:34:39;;;;;;;19.42;7.65;;;;;;;5.00;28.86;95468.06;5042219;28;20052;-76
2022/03/21 09:37:06;;;;;;;25.50;8.02;;;;;;;5.18;29.34;95464.41;5042269;28;20350;-74
2022/03/21 09:39:31;;;;;;;19.70;7.97;;;;;;;5.16;28.93;95458.53;5024724;28;20029;-77
2022/03/21 09:41:58;;;;;;;16.52;7.13;;;;;;;5.21;28.98;95464.72;5042553;28;20018;-75
2022/03/21 09:44:24;;;;;;;16.70;6.97;;;;;;;5.42;29.25;95452.63;5042256;28;20083;-73
2022/03/21 09:46:53;;;;;;;18.80;8.07;;;;;;;5.47;28.70;95459.03;5042481;28;20160;-73
2022/03/21 09:49:23;;;;;;;18.33;7.60;;;;;;;5.55;28.60;95461.25;5042124;28;20017;-74
2022/03/21 09:51:49;;;;;;;16.45;7.82;;;;;;;5.54;28.10;95455.19;5042317;28;20025;-74
2022/03/21 09:54:14;;;;;;;19.23;8.23;;;;;;;5.51;28.46;95465.44;5042107;28;20304;-75
2022/03/21 09:56:40;;;;;;;26.15;8.50;;;;;;;5.74;28.28;95452.03;5042169;28;20063;-75
2022/03/21 09:59:05;;;;;;;15.88;8.05;;;;;;;5.82;28.02;95453.44;5041926;28;20045;-73
2022/03/21 10:01:33;;;;;;;17.35;7.05;;;;;;;5.85;27.63;95442.38;5042196;28;20036;-74
2022/03/21 10:03:59;;;;;;;15.73;7.32;;;;;;;5.96;27.53;95446.81;5042202;28;20017;-74
2022/03/21 10:06:32;;;;;;;14.00;7.10;;;;;;;6.08;27.46;95451.97;5042200;28;20316;-74
2022/03/21 10:09:19;;;;;;;19.20;7.45;;;;;;;6.25;26.93;95444.00;5024304;28;20314;-76
2022/03/21 10:11:53;;;;;;;20.45;6.93;;;;;;;6.40;27.43;95446.81;5041946;28;20063;-75
2022/03/21 10:14:20;;;;;;;15.70;8.65;;;;;;;6.53;26.89;95442.97;5042027;28;20399;-76
2022/03/21 10:16:57;;;;;;;19.08;8.95;;;;;;;6.76;26.73;95441.09;5041965;28;20021;-76
2022/03/21 10:19:23;;;;;;;15.30;8.40;;;;;;;6.79;26.60;95437.94;5041213;28;20025;-76
2022/03/21 10:22:08;;;;;;;19.58;7.38;;;;;;;6.98;26.39;95446.34;5041151;28;20075;-77
2022/03/21 10:24:37;;;;;;;15.32;7.07;;;;;;;7.03;25.86;95447.19;5042382;28;20017;-77
2022/03/21 10:27:02;;;;;;;16.65;7.25;;;;;;;7.15;25.69;95431.13;5045559;28;20013;-78
2022/03/21 10:29:30;;;;;;;14.68;7.57;;;;;;;7.19;26.13;95437.53;5045472;28;20023;-76
2022/03/21 10:31:56;;;;;;;21.13;7.47;;;;;;;7.27;25.62;95428.31;5027475;28;20145;-76
2022/03/21 10:34:23;;;;;;;15.63;7.95;;;;;;;6.91;25.82;95425.34;5045179;28;20330;-76
2022/03/21 10:37:11;;;;;;;18.75;7.05;;;;;;;6.74;26.47;95430.75;5045131;28;20044;-76
2022/03/21 10:39:39;;;;;;;16.23;7.55;;;;;;;6.65;26.64;95426.94;5043542;28;20036;-78
2022/03/21 10:42:09;;;;;;;16.00;8.73;;;;;;;6.69;26.41;95414.00;5043570;28;20354;-77
2022/03/21 10:44:36;;;;;;;23.08;7.82;;;;;;;6.67;26.54;95421.41;5043626;28;20025;-77
2022/03/21 10:47:06;;;;;;;23.65;7.70;;;;;;;6.84;25.88;95411.50;5043830;28;20022;-77
2022/03/21 10:49:38;;;;;;;29.13;7.15;;;;;;;6.96;26.92;95406.03;5044988;28;20289;-77
2022/03/21 10:52:08;;;;;;;14.88;7.32;;;;;;;7.04;25.95;95408.22;5045342;28;20187;-77
2022/03/21 10:54:48;;;;;;;14.38;7.00;;;;;;;7.15;26.27;95412.56;5045100;28;20335;-77
2022/03/21 10:57:36;;;;;;;13.90;6.35;;;;;;;7.26;25.34;95405.47;5044945;28;20018;-77
2022/03/21 11:00:32;;;;;;;16.58;7.50;;;;;;;7.25;25.38;95400.44;5045161;28;20029;-77
2022/03/21 11:03:17;;;;;;;17.77;8.38;;;;;;;7.34;26.09;95397.03;5032065;28;20331;-77
2022/03/21 11:05:45;;;;;;;18.13;8.50;;;;;;;7.41;25.86;95402.94;5045110;28;20058;-76
2022/03/21 11:08:13;;;;;;;20.17;8.45;;;;;;;7.24;25.60;95402.28;5044915;28;20399;-77
2022/03/21 11:10:40;;;;;;;18.85;8.30;;;;;;;7.23;26.16;95401.47;5026892;28;20032;-79
2022/03/21 11:13:07;;;;;;;17.33;8.90;;;;;;;7.18;26.20;95400.63;5044587;28;20059;-79
2022/03/21 11:15:35;;;;;;;20.00;8.00;;;;;;;7.20;26.71;95395.88;5044619;28;20021;-75
2022/03/21 11:18:04;;;;;;;22.52;8.15;;;;;;;7.34;26.18;95393.59;5044710;28;20034;-77
2022/03/21 11:20:30;;;;;;;15.35;8.57;;;;;;;7.26;25.57;95383.47;5044590;28;20021;-77
2022/03/21 11:22:57;;;;;;;20.08;7.55;;;;;;;7.10;26.09;95383.34;5044398;28;20025;-77
2022/03/21 11:25:31;;;;;;;21.63;9.52;;;;;;;6.93;26.90;95386.13;5043460;28;20044;-74
2022/03/21 11:28:14;;;;;;;25.08;11.57;;;;;;;6.97;26.76;95379.25;5042761;28;20029;-73
2022/03/21 11:31:13;;;;;;;19.40;9.48;;;;;;;7.04;26.77;95376.41;5044366;28;20029;-73
2022/03/21 11:34:27;;;;;;;20.40;8.27;;;;;;;7.06;25.99;95373.50;5044158;28;20054;-73
2022/03/21 11:36:55;;;;;;;19.38;8.00;;;;;;;7.01;26.72;95368.97;4998688;28;20033;-73
2022/03/21 11:39:21;;;;;;;16.70;7.70;;;;;;;6.96;26.76;95377.69;5044015;28;20028;-73
2022/03/21 11:42:10;;;;;;;22.48;7.57;;;;;;;7.07;25.91;95359.22;5043901;28;20032;-73
2022/03/21 11:44:37;;;;;;;19.13;6.55;;;;;;;6.96;26.14;95361.78;5044261;28;20029;-73
2022/03/21 11:47:25;;;;;;;12.68;6.80;;;;;;;7.05;25.55;95356.00;5043994;28;20025;-73
2022/03/21 11:49:54;;;;;;;10.82;5.95;;;;;;;7.03;25.96;95354.41;5043804;28;20036;-73
2022/03/21 11:52:19;;;;;;;18.02;7.25;;;;;;;7.14;26.09;95343.88;5043847;28;20231;-73